createdAt,value
2022-11-01T00:00:49.742Z,16.00
2022-11-01T00:01:53.482Z,13.95
2022-11-01T00:02:56.479Z,13.88
2022-11-01T00:03:59.548Z,16.40
2022-11-01T00:05:03.541Z,15.77
2022-11-01T00:06:06.824Z,17.77
2022-11-01T00:07:09.800Z,17.30
2022-11-01T00:08:12.804Z,14.57
2022-11-01T00:09:16.326Z,17.85
2022-11-01T00:10:19.360Z,18.45
2022-11-01T00:11:22.426Z,15.10
2022-11-01T00:12:25.357Z,20.08
2022-11-01T00:13:28.903Z,16.48
2022-11-01T00:14:31.963Z,17.73
2022-11-01T00:15:34.949Z,17.70
2022-11-01T00:16:37.922Z,19.63
2022-11-01T00:17:40.887Z,15.60
2022-11-01T00:18:44.036Z,20.30
2022-11-01T00:19:47.026Z,13.23
2022-11-01T00:20:52.839Z,17.98
2022-11-01T00:21:55.838Z,18.45
2022-11-01T00:22:59.123Z,15.52
2022-11-01T00:24:02.314Z,14.80
2022-11-01T00:25:05.714Z,18.90
2022-11-01T00:26:10.307Z,18.42
2022-11-01T00:27:13.290Z,16.73
2022-11-01T00:28:16.287Z,18.42
2022-11-01T00:29:19.405Z,20.20
2022-11-01T00:30:22.405Z,18.25
2022-11-01T00:31:25.864Z,22.60
2022-11-01T00:32:28.812Z,19.55
2022-11-01T00:33:31.877Z,18.00
2022-11-01T00:34:34.771Z,20.23
2022-11-01T00:35:38.030Z,19.25
2022-11-01T00:36:40.984Z,19.70
2022-11-01T00:37:43.965Z,23.83
2022-11-01T00:38:53.478Z,19.10
2022-11-01T00:39:56.373Z,17.38
2022-11-01T00:40:59.873Z,22.02
2022-11-01T00:42:02.982Z,21.20
2022-11-01T00:43:06.169Z,20.38
2022-11-01T00:44:09.244Z,22.02
2022-11-01T00:45:12.228Z,15.48
2022-11-01T00:46:15.558Z,15.00
2022-11-01T00:47:18.558Z,15.52
2022-11-01T00:48:21.513Z,16.73
2022-11-01T00:49:24.615Z,16.05
2022-11-01T00:50:27.680Z,21.10
2022-11-01T00:51:30.701Z,19.92
2022-11-01T00:52:33.967Z,18.90
2022-11-01T00:53:36.993Z,19.92
2022-11-01T00:54:39.940Z,16.40
2022-11-01T00:55:43.022Z,17.05
2022-11-01T00:56:46.047Z,20.88
2022-11-01T00:57:49.359Z,13.82
2022-11-01T00:58:52.500Z,17.13
2022-11-01T00:59:55.571Z,17.95
2022-11-01T01:00:58.841Z,18.58
2022-11-01T01:02:02.029Z,17.40
2022-11-01T01:03:06.548Z,15.73
2022-11-01T01:04:09.526Z,19.27
2022-11-01T01:05:12.814Z,16.58
2022-11-01T01:06:15.832Z,16.60
2022-11-01T01:07:18.926Z,15.80
2022-11-01T01:08:23.098Z,16.58
2022-11-01T01:09:26.009Z,17.52
2022-11-01T01:10:29.165Z,14.57
2022-11-01T01:11:32.097Z,14.10
2022-11-01T01:12:35.077Z,19.33
2022-11-01T01:13:37.999Z,14.82
2022-11-01T01:14:41.039Z,15.93
2022-11-01T01:15:44.791Z,16.67
2022-11-01T01:16:47.822Z,15.50
2022-11-01T01:17:50.948Z,15.40
2022-11-01T01:18:54.031Z,17.08
2022-11-01T01:19:56.961Z,18.38
2022-11-01T01:21:04.077Z,16.50
2022-11-01T01:22:07.475Z,17.00
2022-11-01T01:23:10.521Z,14.63
2022-11-01T01:24:13.575Z,18.20
2022-11-01T01:25:17.598Z,17.27
2022-11-01T01:26:21.086Z,16.48
2022-11-01T01:27:24.361Z,18.58
2022-11-01T01:28:27.456Z,14.57
2022-11-01T01:29:30.601Z,14.43
2022-11-01T01:30:33.777Z,14.55
2022-11-01T01:31:36.770Z,15.70
2022-11-01T01:32:39.920Z,14.60
2022-11-01T01:33:43.062Z,14.48
2022-11-01T01:34:46.025Z,14.73
2022-11-01T01:35:49.024Z,17.20
2022-11-01T01:36:51.923Z,12.57
2022-11-01T01:37:55.144Z,16.15
2022-11-01T01:38:58.137Z,16.02
2022-11-01T01:40:01.130Z,13.02
2022-11-01T01:41:22.775Z,15.15
2022-11-01T01:42:33.229Z,23.17
2022-11-01T01:43:44.510Z,15.50
2022-11-01T01:45:39.008Z,14.55
2022-11-01T01:46:41.978Z,17.85
2022-11-01T01:47:49.034Z,14.15
2022-11-01T01:48:57.862Z,11.77
2022-11-01T01:50:08.672Z,14.45
2022-11-01T01:52:19.431Z,12.25
2022-11-01T01:53:31.989Z,15.55
2022-11-01T01:54:35.314Z,14.80
2022-11-01T01:55:48.487Z,15.25
2022-11-01T01:56:51.563Z,16.40
2022-11-01T01:57:56.687Z,14.63
2022-11-01T01:59:09.826Z,18.10
2022-11-01T02:00:13.775Z,14.52
2022-11-01T02:01:18.220Z,16.55
2022-11-01T02:02:21.951Z,18.20
2022-11-01T02:03:31.197Z,13.85
2022-11-01T02:04:44.841Z,14.25
2022-11-01T02:06:10.384Z,13.88
2022-11-01T02:07:13.517Z,14.00
2022-11-01T02:08:26.657Z,15.07
2022-11-01T02:09:31.714Z,19.55
2022-11-01T02:10:35.553Z,13.35
2022-11-01T02:11:38.529Z,19.48
2022-11-01T02:12:47.263Z,18.80
2022-11-01T02:13:51.262Z,16.63
2022-11-01T02:14:54.488Z,16.73
2022-11-01T02:16:26.683Z,17.42
2022-11-01T02:18:25.438Z,18.88
2022-11-01T02:19:30.937Z,17.13
2022-11-01T02:20:53.739Z,17.15
2022-11-01T02:22:19.539Z,15.55
2022-11-01T02:23:51.418Z,19.88
2022-11-01T02:25:37.936Z,17.50
2022-11-01T02:27:02.363Z,18.33
2022-11-01T02:28:29.929Z,16.35
2022-11-01T02:29:51.861Z,17.30
2022-11-01T02:31:17.872Z,17.65
2022-11-01T02:32:38.677Z,17.48
2022-11-01T02:35:09.012Z,23.60
2022-11-01T02:36:23.262Z,17.35
2022-11-01T02:37:35.413Z,17.15
2022-11-01T02:38:59.026Z,16.90
2022-11-01T02:40:14.189Z,18.23
2022-11-01T02:41:25.071Z,14.23
2022-11-01T02:42:43.491Z,16.67
2022-11-01T02:44:10.114Z,16.38
2022-11-01T02:45:34.756Z,17.15
2022-11-01T02:46:59.679Z,17.23
2022-11-01T02:48:04.512Z,18.42
2022-11-01T02:49:11.492Z,15.57
2022-11-01T02:50:14.750Z,18.50
2022-11-01T02:51:21.382Z,18.50
2022-11-01T02:52:27.639Z,16.88
2022-11-01T02:53:30.663Z,19.17
2022-11-01T02:55:01.833Z,19.75
2022-11-01T02:56:04.950Z,16.65
2022-11-01T02:57:37.685Z,18.10
2022-11-01T02:58:41.042Z,19.98
2022-11-01T02:59:46.538Z,17.52
2022-11-01T03:00:49.957Z,19.30
2022-11-01T03:02:08.724Z,17.48
2022-11-01T03:03:27.711Z,18.65
2022-11-01T03:04:31.158Z,18.65
2022-11-01T03:05:48.606Z,19.40
2022-11-01T03:07:01.179Z,25.25
2022-11-01T03:08:09.589Z,16.92
2022-11-01T03:09:14.422Z,19.73
2022-11-01T03:10:21.212Z,14.57
2022-11-01T03:11:35.092Z,16.75
2022-11-01T03:12:59.375Z,16.92
2022-11-01T03:14:36.040Z,19.73
2022-11-01T03:15:52.651Z,18.58
2022-11-01T03:17:16.488Z,17.05
2022-11-01T03:18:30.520Z,17.35
2022-11-01T03:19:51.796Z,20.10
2022-11-01T03:21:18.299Z,18.92
2022-11-01T03:22:35.686Z,17.42
2022-11-01T03:24:06.898Z,17.13
2022-11-01T03:25:44.419Z,16.73
2022-11-01T03:26:58.959Z,15.63
2022-11-01T03:28:06.456Z,17.08
2022-11-01T03:29:10.371Z,14.63
2022-11-01T03:30:14.987Z,18.58
2022-11-01T03:31:24.579Z,17.20
2022-11-01T03:32:33.014Z,18.33
2022-11-01T03:33:47.856Z,13.45
2022-11-01T03:34:51.105Z,14.48
2022-11-01T03:36:02.051Z,16.08
2022-11-01T03:37:11.421Z,16.65
2022-11-01T03:38:20.220Z,13.48
2022-11-01T03:39:31.069Z,13.57
2022-11-01T03:40:37.295Z,14.60
2022-11-01T03:41:45.163Z,14.90
2022-11-01T03:42:50.919Z,14.50
2022-11-01T03:43:55.150Z,15.00
2022-11-01T03:45:04.318Z,17.60
2022-11-01T03:46:09.086Z,17.33
2022-11-01T03:47:13.442Z,17.17
2022-11-01T03:48:16.427Z,15.95
2022-11-01T03:49:20.379Z,15.68
2022-11-01T03:50:26.925Z,16.20
2022-11-01T03:51:30.059Z,16.00
2022-11-01T03:52:33.048Z,13.77
2022-11-01T03:53:36.060Z,14.73
2022-11-01T03:54:39.131Z,11.55
2022-11-01T03:55:42.778Z,10.90
2022-11-01T03:56:46.011Z,12.25
2022-11-01T03:58:00.106Z,14.88
2022-11-01T03:59:03.438Z,12.07
2022-11-01T04:00:08.793Z,13.45
2022-11-01T04:01:17.642Z,12.20
2022-11-01T04:02:20.680Z,10.50
2022-11-01T04:03:23.624Z,13.65
2022-11-01T04:04:26.632Z,12.38
2022-11-01T04:05:32.081Z,13.55
2022-11-01T04:06:35.120Z,13.15
2022-11-01T04:07:39.700Z,12.85
2022-11-01T04:08:42.609Z,10.68
2022-11-01T04:09:45.554Z,11.55
2022-11-01T04:10:48.654Z,12.43
2022-11-01T04:11:51.594Z,18.58
2022-11-01T04:12:55.007Z,13.70
2022-11-01T04:14:18.032Z,13.70
2022-11-01T04:15:41.194Z,11.00
2022-11-01T04:17:03.059Z,13.60
2022-11-01T04:18:44.721Z,14.02
2022-11-01T04:20:06.132Z,14.50
2022-11-01T04:21:24.809Z,10.80
2022-11-01T04:22:27.891Z,10.77
2022-11-01T04:23:31.142Z,15.13
2022-11-01T04:24:34.079Z,12.05
2022-11-01T04:25:37.177Z,13.70
2022-11-01T04:26:40.156Z,10.95
2022-11-01T04:27:43.180Z,12.93
2022-11-01T04:28:57.129Z,12.23
2022-11-01T04:30:00.631Z,11.80
2022-11-01T04:31:04.584Z,12.30
2022-11-01T04:32:07.620Z,10.70
2022-11-01T04:33:11.100Z,12.60
2022-11-01T04:34:14.049Z,16.25
2022-11-01T04:35:17.243Z,13.32
2022-11-01T04:36:20.350Z,13.60
2022-11-01T04:37:23.242Z,14.48
2022-11-01T04:38:26.190Z,13.23
2022-11-01T04:39:29.243Z,12.93
2022-11-01T04:40:33.299Z,12.90
2022-11-01T04:41:36.266Z,12.68
2022-11-01T04:42:40.551Z,13.65
2022-11-01T04:43:43.480Z,14.55
2022-11-01T04:44:48.027Z,14.10
2022-11-01T04:45:55.433Z,15.40
2022-11-01T04:46:58.569Z,12.82
2022-11-01T04:48:08.129Z,14.70
2022-11-01T04:49:11.318Z,15.55
2022-11-01T04:50:14.563Z,14.57
2022-11-01T04:51:17.851Z,17.60
2022-11-01T04:52:20.835Z,12.43
2022-11-01T04:53:23.751Z,12.40
2022-11-01T04:54:26.667Z,14.13
2022-11-01T04:55:29.853Z,21.85
2022-11-01T04:56:33.328Z,16.80
2022-11-01T04:57:43.851Z,16.80
2022-11-01T04:58:46.929Z,13.48
2022-11-01T04:59:50.810Z,16.45
2022-11-01T05:00:53.863Z,17.73
2022-11-01T05:01:57.066Z,14.43
2022-11-01T05:03:08.373Z,15.45
2022-11-01T05:04:11.397Z,19.08
2022-11-01T05:05:14.491Z,15.63
2022-11-01T05:06:17.938Z,13.25
2022-11-01T05:07:21.100Z,14.82
2022-11-01T05:08:24.108Z,16.48
2022-11-01T05:09:27.030Z,17.70
2022-11-01T05:10:30.621Z,17.45
2022-11-01T05:11:33.667Z,18.67
2022-11-01T05:12:37.318Z,20.23
2022-11-01T05:13:40.343Z,20.15
2022-11-01T05:14:43.321Z,18.50
2022-11-01T05:15:59.540Z,20.23
2022-11-01T05:17:09.260Z,16.25
2022-11-01T05:18:12.446Z,21.33
2022-11-01T05:19:16.674Z,23.05
2022-11-01T05:20:20.615Z,23.15
2022-11-01T05:21:23.586Z,23.23
2022-11-01T05:22:26.669Z,22.35
2022-11-01T05:23:29.582Z,21.27
2022-11-01T05:24:32.573Z,19.60
2022-11-01T05:25:38.126Z,19.38
2022-11-01T05:26:41.543Z,23.20
2022-11-01T05:27:44.591Z,22.60
2022-11-01T05:28:48.054Z,19.17
2022-11-01T05:29:51.032Z,21.67
2022-11-01T05:30:54.069Z,18.67
2022-11-01T05:31:57.195Z,20.75
2022-11-01T05:33:01.599Z,18.15
2022-11-01T05:34:04.749Z,20.83
2022-11-01T05:35:08.171Z,20.05
2022-11-01T05:36:11.154Z,17.23
2022-11-01T05:37:15.775Z,26.10
2022-11-01T05:38:18.741Z,20.48
2022-11-01T05:39:21.695Z,20.02
2022-11-01T05:40:25.481Z,23.35
2022-11-01T05:41:28.489Z,21.67
2022-11-01T05:42:31.411Z,22.27
2022-11-01T05:43:34.492Z,20.50
2022-11-01T05:44:37.646Z,20.35
2022-11-01T05:45:40.643Z,19.45
2022-11-01T05:46:43.727Z,16.40
2022-11-01T05:47:46.851Z,16.63
2022-11-01T05:48:49.762Z,17.98
2022-11-01T05:49:52.702Z,17.45
2022-11-01T05:50:55.636Z,17.55
2022-11-01T05:51:58.749Z,18.13
2022-11-01T05:53:09.075Z,19.60
2022-11-01T05:54:12.083Z,18.95
2022-11-01T05:55:15.009Z,17.80
2022-11-01T05:56:18.697Z,19.70
2022-11-01T05:57:24.431Z,16.08
2022-11-01T05:58:30.723Z,17.58
2022-11-01T05:59:34.396Z,20.33
2022-11-01T06:00:37.624Z,17.60
2022-11-01T06:01:40.895Z,18.42
2022-11-01T06:02:44.018Z,20.70
2022-11-01T06:03:50.486Z,20.67
2022-11-01T06:04:53.470Z,20.13
2022-11-01T06:05:59.878Z,18.52
2022-11-01T06:07:04.260Z,14.02
2022-11-01T06:08:07.436Z,20.13
2022-11-01T06:09:10.638Z,22.95
2022-11-01T06:10:13.628Z,17.60
2022-11-01T06:11:16.585Z,20.67
2022-11-01T06:12:19.588Z,20.85
2022-11-01T06:13:22.663Z,22.60
2022-11-01T06:14:25.799Z,18.02
2022-11-01T06:15:28.956Z,17.40
2022-11-01T06:16:34.246Z,19.63
2022-11-01T06:17:37.244Z,18.80
2022-11-01T06:18:40.245Z,20.77
2022-11-01T06:19:43.184Z,18.75
2022-11-01T06:20:46.182Z,18.92
2022-11-01T06:21:49.226Z,21.30
2022-11-01T06:22:52.223Z,19.65
2022-11-01T06:23:55.560Z,23.05
2022-11-01T06:24:58.491Z,20.23
2022-11-01T06:26:02.996Z,22.65
2022-11-01T06:27:09.997Z,22.92
2022-11-01T06:28:16.489Z,21.35
2022-11-01T06:29:19.474Z,20.50
2022-11-01T06:30:22.589Z,23.83
2022-11-01T06:31:25.542Z,20.70
2022-11-01T06:32:28.551Z,20.13
2022-11-01T06:33:32.301Z,19.08
2022-11-01T06:34:35.357Z,20.08
2022-11-01T06:35:38.287Z,21.67
2022-11-01T06:36:43.116Z,21.95
2022-11-01T06:37:46.873Z,22.85
2022-11-01T06:38:50.389Z,22.73
2022-11-01T06:39:53.372Z,20.90
2022-11-01T06:40:56.898Z,25.25
2022-11-01T06:41:59.877Z,24.52
2022-11-01T06:43:05.620Z,22.83
2022-11-01T06:44:08.760Z,26.33
2022-11-01T06:45:11.818Z,28.08
2022-11-01T06:46:14.804Z,27.33
2022-11-01T06:47:17.749Z,24.35
2022-11-01T06:48:20.829Z,27.52
2022-11-01T06:49:24.051Z,26.23
2022-11-01T06:50:27.298Z,23.10
2022-11-01T06:51:30.323Z,27.30
2022-11-01T06:52:33.365Z,24.45
2022-11-01T06:53:36.353Z,28.70
2022-11-01T06:54:39.366Z,24.63
2022-11-01T06:55:42.363Z,26.00
2022-11-01T06:56:48.031Z,24.40
2022-11-01T06:57:59.771Z,30.83
2022-11-01T06:59:03.113Z,27.00
2022-11-01T07:00:08.178Z,24.70
2022-11-01T07:01:11.239Z,23.67
2022-11-01T07:02:15.379Z,20.70
2022-11-01T07:03:19.605Z,24.65
2022-11-01T07:04:23.282Z,26.30
2022-11-01T07:05:26.891Z,20.20
2022-11-01T07:06:31.116Z,22.00
2022-11-01T07:07:34.269Z,22.58
2022-11-01T07:08:37.296Z,19.17
2022-11-01T07:09:40.255Z,20.80
2022-11-01T07:10:44.247Z,18.80
2022-11-01T07:11:47.373Z,21.58
2022-11-01T07:12:50.396Z,20.75
2022-11-01T07:13:53.429Z,21.50
2022-11-01T07:14:56.375Z,21.85
2022-11-01T07:16:01.613Z,20.67
2022-11-01T07:17:04.691Z,23.17
2022-11-01T07:18:08.727Z,22.67
2022-11-01T07:19:12.070Z,21.60
2022-11-01T07:20:15.088Z,24.90
2022-11-01T07:21:18.185Z,17.95
2022-11-01T07:22:21.123Z,20.02
2022-11-01T07:23:24.581Z,16.65
2022-11-01T07:24:27.542Z,20.50
2022-11-01T07:25:32.063Z,21.45
2022-11-01T07:26:35.004Z,21.88
2022-11-01T07:27:38.013Z,18.73
2022-11-01T07:28:41.075Z,18.70
2022-11-01T07:29:44.055Z,20.52
2022-11-01T07:30:55.089Z,18.52
2022-11-01T07:31:58.144Z,19.65
2022-11-01T07:33:04.787Z,18.80
2022-11-01T07:34:08.288Z,18.83
2022-11-01T07:35:11.403Z,19.08
2022-11-01T07:36:14.544Z,19.98
2022-11-01T07:37:17.528Z,17.52
2022-11-01T07:38:20.798Z,17.95
2022-11-01T07:39:24.276Z,19.02
2022-11-01T07:40:28.160Z,20.80
2022-11-01T07:41:31.352Z,17.10
2022-11-01T07:42:40.433Z,19.30
2022-11-01T07:43:43.479Z,18.95
2022-11-01T07:44:46.546Z,14.85
2022-11-01T07:45:50.169Z,19.10
2022-11-01T07:46:53.533Z,17.45
2022-11-01T07:48:02.771Z,21.00
2022-11-01T07:49:08.342Z,22.25
2022-11-01T07:50:11.394Z,20.27
2022-11-01T07:51:14.393Z,18.73
2022-11-01T07:52:17.398Z,19.08
2022-11-01T07:53:20.567Z,19.98
2022-11-01T07:54:23.592Z,18.50
2022-11-01T07:55:26.695Z,16.27
2022-11-01T07:56:29.841Z,18.85
2022-11-01T07:57:38.014Z,19.77
2022-11-01T07:58:43.467Z,22.38
2022-11-01T07:59:46.571Z,23.45
2022-11-01T08:00:49.637Z,20.10
2022-11-01T08:01:52.757Z,20.67
2022-11-01T08:03:07.358Z,22.50
2022-11-01T08:04:10.312Z,18.95
2022-11-01T08:05:13.771Z,22.15
2022-11-01T08:06:17.018Z,22.95
2022-11-01T08:07:19.986Z,20.38
2022-11-01T08:08:22.888Z,22.25
2022-11-01T08:09:25.835Z,17.90
2022-11-01T08:10:29.826Z,21.13
2022-11-01T08:11:32.766Z,20.52
2022-11-01T08:12:35.798Z,19.25
2022-11-01T08:13:38.874Z,20.90
2022-11-01T08:14:41.818Z,17.98
2022-11-01T08:15:46.356Z,19.17
2022-11-01T08:16:55.706Z,20.35
2022-11-01T08:17:59.344Z,18.65
2022-11-01T08:19:02.586Z,23.00
2022-11-01T08:20:07.149Z,22.60
2022-11-01T08:21:11.771Z,18.63
2022-11-01T08:22:14.747Z,24.45
2022-11-01T08:23:17.716Z,21.23
2022-11-01T08:24:20.750Z,21.92
2022-11-01T08:25:24.180Z,21.05
2022-11-01T08:26:27.550Z,20.73
2022-11-01T08:27:32.856Z,20.77
2022-11-01T08:28:37.550Z,24.10
2022-11-01T08:29:40.781Z,22.38
2022-11-01T08:30:46.498Z,24.25
2022-11-01T08:31:49.445Z,19.42
2022-11-01T08:33:02.365Z,24.10
2022-11-01T08:34:05.725Z,21.33
2022-11-01T08:35:09.333Z,24.10
2022-11-01T08:36:12.573Z,22.00
2022-11-01T08:37:16.021Z,24.83
2022-11-01T08:38:19.524Z,24.83
2022-11-01T08:39:22.863Z,22.55
2022-11-01T08:40:28.304Z,25.05
2022-11-01T08:41:32.139Z,21.38
2022-11-01T08:42:38.361Z,23.20
2022-11-01T08:43:41.679Z,21.45
2022-11-01T08:44:45.569Z,24.23
2022-11-01T08:45:48.740Z,26.38
2022-11-01T08:46:55.217Z,21.52
2022-11-01T08:48:03.695Z,23.10
2022-11-01T08:49:06.738Z,19.95
2022-11-01T08:50:13.552Z,23.50
2022-11-01T08:51:24.440Z,26.02
2022-11-01T08:52:28.078Z,22.23
2022-11-01T08:53:31.091Z,23.90
2022-11-01T08:54:34.541Z,21.75
2022-11-01T08:55:38.524Z,23.35
2022-11-01T08:56:41.567Z,21.95
2022-11-01T08:57:44.532Z,26.48
2022-11-01T08:58:49.598Z,21.92
2022-11-01T08:59:52.566Z,24.67
2022-11-01T09:00:55.591Z,24.33
2022-11-01T09:01:58.753Z,22.33
2022-11-01T09:03:01.855Z,24.02
2022-11-01T09:04:05.922Z,22.70
2022-11-01T09:05:09.104Z,25.42
2022-11-01T09:06:12.082Z,26.08
2022-11-01T09:07:17.813Z,24.85
2022-11-01T09:08:20.811Z,24.75
2022-11-01T09:09:23.802Z,26.35
2022-11-01T09:10:27.274Z,23.42
2022-11-01T09:11:30.812Z,24.27
2022-11-01T09:12:34.197Z,24.92
2022-11-01T09:13:37.344Z,29.90
2022-11-01T09:14:40.308Z,23.00
2022-11-01T09:15:43.255Z,26.05
2022-11-01T09:16:46.760Z,38.58
2022-11-01T09:17:49.768Z,24.73
2022-11-01T09:18:52.814Z,42.50
2022-11-01T09:19:55.879Z,24.25
2022-11-01T09:20:59.072Z,29.30
2022-11-01T09:22:02.073Z,25.58
2022-11-01T09:23:05.489Z,23.23
2022-11-01T09:24:09.981Z,25.45
2022-11-01T09:25:13.028Z,28.13
2022-11-01T09:26:16.036Z,21.85
2022-11-01T09:27:18.991Z,23.75
2022-11-01T09:28:22.069Z,27.00
2022-11-01T09:29:25.846Z,25.55
2022-11-01T09:30:30.371Z,25.05
2022-11-01T09:31:33.720Z,28.15
2022-11-01T09:32:36.726Z,28.80
2022-11-01T09:33:39.773Z,26.35
2022-11-01T09:34:42.769Z,27.52
2022-11-01T09:35:55.405Z,25.05
2022-11-01T09:37:02.302Z,24.48
2022-11-01T09:38:05.325Z,26.83
2022-11-01T09:39:08.324Z,22.65
2022-11-01T09:40:14.684Z,25.75
2022-11-01T09:41:47.638Z,26.63
2022-11-01T09:42:51.587Z,25.42
2022-11-01T09:43:57.070Z,24.95
2022-11-01T09:45:07.963Z,26.48
2022-11-01T09:46:16.764Z,26.92
2022-11-01T09:47:25.920Z,27.75
2022-11-01T09:48:32.180Z,26.13
2022-11-01T09:49:39.962Z,32.67
2022-11-01T09:50:43.940Z,29.55
2022-11-01T09:51:46.955Z,28.23
2022-11-01T09:52:52.198Z,28.05
2022-11-01T09:53:59.385Z,26.90
2022-11-01T09:55:02.404Z,27.02
2022-11-01T09:56:12.432Z,28.75
2022-11-01T09:57:40.094Z,26.98
2022-11-01T09:59:06.088Z,29.80
2022-11-01T10:00:18.198Z,28.35
2022-11-01T10:02:15.522Z,32.88
2022-11-01T10:03:46.532Z,33.53
2022-11-01T10:05:02.128Z,32.53
2022-11-01T10:06:27.080Z,32.67
2022-11-01T10:08:15.610Z,33.80
2022-11-01T10:09:47.317Z,40.15
2022-11-01T10:11:11.106Z,33.80
2022-11-01T10:12:16.888Z,28.17
2022-11-01T10:13:43.891Z,30.08
2022-11-01T10:15:31.461Z,33.03
2022-11-01T10:16:43.768Z,33.55
2022-11-01T10:17:55.467Z,27.85
2022-11-01T10:19:14.895Z,34.17
2022-11-01T10:20:30.335Z,35.25
2022-11-01T10:21:49.797Z,38.63
2022-11-01T10:22:53.334Z,36.22
2022-11-01T10:24:00.629Z,36.08
2022-11-01T10:25:31.793Z,29.25
2022-11-01T10:26:35.189Z,28.98
2022-11-01T10:28:40.250Z,29.65
2022-11-01T10:30:01.906Z,25.73
2022-11-01T10:31:14.231Z,25.10
2022-11-01T10:32:49.149Z,31.55
2022-11-01T10:34:05.242Z,23.98
2022-11-01T10:35:34.092Z,30.02
2022-11-01T10:36:41.123Z,28.08
2022-11-01T10:40:18.518Z,29.52
2022-11-01T10:41:41.125Z,29.40
2022-11-01T10:42:44.220Z,29.58
2022-11-01T10:43:55.661Z,27.77
2022-11-01T10:45:03.579Z,26.35
2022-11-01T10:46:14.061Z,32.05
2022-11-01T10:47:21.641Z,23.77
2022-11-01T10:49:06.721Z,26.83
2022-11-01T10:50:12.337Z,24.40
2022-11-01T10:51:24.005Z,28.65
2022-11-01T10:53:01.730Z,26.65
2022-11-01T10:54:11.308Z,25.60
2022-11-01T10:55:42.023Z,26.80
2022-11-01T10:56:49.016Z,25.88
2022-11-01T10:58:05.116Z,26.85
2022-11-01T10:59:33.901Z,24.83
2022-11-01T11:00:41.328Z,24.88
2022-11-01T11:01:47.347Z,27.25
2022-11-01T11:03:01.256Z,27.73
2022-11-01T11:04:07.869Z,27.75
2022-11-01T11:05:15.620Z,25.98
2022-11-01T11:06:20.090Z,26.55
2022-11-01T11:07:32.154Z,27.77
2022-11-01T11:08:38.645Z,32.42
2022-11-01T11:09:41.670Z,30.52
2022-11-01T11:10:46.000Z,28.55
2022-11-01T11:11:51.548Z,26.67
2022-11-01T11:13:05.733Z,34.67
2022-11-01T11:14:11.686Z,31.00
2022-11-01T11:15:25.983Z,28.10
2022-11-01T11:16:55.520Z,29.55
2022-11-01T11:18:02.494Z,30.80
2022-11-01T11:19:08.694Z,32.03
2022-11-01T11:20:14.041Z,29.52
2022-11-01T11:21:17.213Z,31.13
2022-11-01T11:22:23.195Z,29.50
2022-11-01T11:23:34.066Z,32.78
2022-11-01T11:24:40.040Z,29.13
2022-11-01T11:25:45.115Z,31.50
2022-11-01T11:26:57.634Z,34.15
2022-11-01T11:28:01.638Z,32.88
2022-11-01T11:29:05.763Z,35.90
2022-11-01T11:30:12.392Z,37.75
2022-11-01T11:31:28.915Z,35.63
2022-11-01T11:32:39.449Z,31.83
2022-11-01T11:33:53.533Z,34.20
2022-11-01T11:35:14.300Z,40.45
2022-11-01T11:37:25.159Z,32.17
2022-11-01T11:38:43.504Z,33.15
2022-11-01T11:40:06.762Z,38.13
2022-11-01T11:41:12.431Z,36.30
2022-11-01T11:42:24.108Z,37.05
2022-11-01T11:43:41.167Z,36.30
2022-11-01T11:44:53.875Z,31.67
2022-11-01T11:46:10.207Z,32.83
2022-11-01T11:47:28.365Z,33.97
2022-11-01T11:48:32.160Z,35.03
2022-11-01T11:49:35.305Z,36.40
2022-11-01T11:50:38.784Z,35.65
2022-11-01T11:51:42.716Z,34.90
2022-11-01T11:52:49.362Z,34.00
2022-11-01T11:54:13.736Z,33.55
2022-11-01T11:55:48.307Z,35.45
2022-11-01T11:57:07.686Z,33.40
2022-11-01T11:58:40.443Z,32.33
2022-11-01T12:01:10.883Z,35.38
2022-11-01T12:02:35.509Z,34.25
2022-11-01T12:03:58.877Z,39.85
2022-11-01T12:05:08.554Z,36.45
2022-11-01T12:06:21.574Z,33.28
2022-11-01T12:07:29.146Z,39.22
2022-11-01T12:08:56.618Z,40.33
2022-11-01T12:10:07.021Z,40.03
2022-11-01T12:11:10.168Z,34.47
2022-11-01T12:12:27.767Z,40.80
2022-11-01T12:13:44.063Z,37.92
2022-11-01T12:14:47.145Z,37.72
2022-11-01T12:16:05.810Z,40.60
2022-11-01T12:17:34.625Z,38.90
2022-11-01T12:18:50.265Z,38.97
2022-11-01T12:20:22.897Z,38.80
2022-11-01T12:21:33.564Z,35.65
2022-11-01T12:22:40.544Z,34.30
2022-11-01T12:23:44.580Z,38.00
2022-11-01T12:24:51.699Z,34.42
2022-11-01T12:25:57.954Z,40.47
2022-11-01T12:27:07.098Z,38.55
2022-11-01T12:28:27.167Z,38.90
2022-11-01T12:29:37.774Z,33.25
2022-11-01T12:30:43.370Z,38.42
2022-11-01T12:31:48.421Z,37.33
2022-11-01T12:32:58.862Z,37.47
2022-11-01T12:34:31.124Z,40.92
2022-11-01T12:35:41.979Z,34.65
2022-11-01T12:38:09.754Z,33.00
2022-11-01T12:39:46.072Z,39.30
2022-11-01T12:40:52.927Z,35.25
2022-11-01T12:42:04.436Z,37.55
2022-11-01T12:43:21.191Z,36.67
2022-11-01T12:44:39.165Z,32.65
2022-11-01T12:45:52.410Z,35.53
2022-11-01T12:47:22.055Z,39.65
2022-11-01T12:48:29.348Z,43.10
2022-11-01T12:50:12.156Z,36.92
2022-11-01T12:51:47.345Z,40.70
2022-11-01T12:53:06.201Z,34.92
2022-11-01T12:54:16.430Z,35.05
2022-11-01T12:55:40.458Z,36.50
2022-11-01T12:56:43.508Z,35.60
2022-11-01T12:57:46.586Z,39.33
2022-11-01T12:58:54.019Z,35.35
2022-11-01T12:59:58.174Z,40.65
2022-11-01T13:01:15.751Z,34.92
2022-11-01T13:02:34.178Z,36.67
2022-11-01T13:04:04.778Z,39.83
2022-11-01T13:05:21.592Z,35.42
2022-11-01T13:06:35.474Z,42.97
2022-11-01T13:08:02.597Z,36.72
2022-11-01T13:09:29.594Z,40.88
2022-11-01T13:11:58.746Z,39.95
2022-11-01T13:13:29.213Z,37.83
2022-11-01T13:15:10.901Z,39.10
2022-11-01T13:16:31.668Z,36.03
2022-11-01T13:17:45.403Z,38.00
2022-11-01T13:19:17.073Z,34.00
2022-11-01T13:20:57.078Z,35.00
2022-11-01T13:22:11.077Z,40.38
2022-11-01T13:23:26.818Z,34.65
2022-11-01T13:25:12.695Z,34.33
2022-11-01T13:26:26.440Z,28.48
2022-11-01T13:27:44.581Z,37.15
2022-11-01T13:29:24.753Z,34.55
2022-11-01T13:30:28.518Z,35.95
2022-11-01T13:32:08.770Z,34.10
2022-11-01T13:33:32.258Z,34.65
2022-11-01T13:35:12.755Z,33.28
2022-11-01T13:36:42.140Z,31.88
2022-11-01T13:38:12.216Z,33.92
2022-11-01T13:40:12.724Z,32.93
2022-11-01T13:41:29.645Z,35.58
2022-11-01T13:42:59.782Z,38.75
2022-11-01T13:44:27.482Z,34.13
2022-11-01T13:46:10.172Z,33.63
2022-11-01T13:47:21.841Z,34.72
2022-11-01T13:48:36.560Z,35.78
2022-11-01T13:50:32.783Z,33.75
2022-11-01T13:51:55.183Z,34.25
2022-11-01T13:53:09.336Z,35.83
2022-11-01T13:55:05.184Z,31.73
2022-11-01T13:56:13.454Z,33.75
2022-11-01T13:57:19.746Z,30.50
2022-11-01T13:58:24.236Z,36.08
2022-11-01T13:59:45.138Z,33.03
2022-11-01T14:00:51.612Z,33.90
2022-11-01T14:01:54.978Z,34.25
2022-11-01T14:02:59.373Z,30.58
2022-11-01T14:04:17.006Z,37.70
2022-11-01T14:05:20.384Z,31.17
2022-11-01T14:06:23.377Z,33.15
2022-11-01T14:07:44.549Z,34.90
2022-11-01T14:08:48.546Z,32.20
2022-11-01T14:09:54.225Z,28.92
2022-11-01T14:10:57.376Z,37.83
2022-11-01T14:12:06.009Z,34.20
2022-11-01T14:13:16.725Z,33.35
2022-11-01T14:15:56.096Z,33.33
2022-11-01T14:17:20.770Z,37.58
2022-11-01T14:18:24.511Z,34.13
2022-11-01T14:19:27.513Z,36.33
2022-11-01T14:20:33.248Z,35.55
2022-11-01T14:21:48.602Z,35.25
2022-11-01T14:22:55.890Z,43.00
2022-11-01T14:24:07.274Z,39.17
2022-11-01T14:25:13.461Z,34.80
2022-11-01T14:26:20.115Z,33.92
2022-11-01T14:27:29.547Z,35.58
2022-11-01T14:28:32.500Z,39.58
2022-11-01T14:29:36.759Z,39.72
2022-11-01T14:30:42.817Z,43.22
2022-11-01T14:31:48.041Z,36.42
2022-11-01T14:33:03.191Z,36.10
2022-11-01T14:34:20.579Z,36.55
2022-11-01T14:35:36.373Z,38.47
2022-11-01T14:36:42.633Z,38.42
2022-11-01T14:37:53.551Z,37.22
2022-11-01T14:39:29.617Z,40.85
2022-11-01T14:40:57.486Z,35.83
2022-11-01T14:42:03.953Z,36.50
2022-11-01T14:43:43.005Z,35.75
2022-11-01T14:44:50.856Z,33.65
2022-11-01T14:46:11.401Z,37.15
2022-11-01T14:47:40.811Z,32.63
2022-11-01T14:48:58.612Z,38.08
2022-11-01T14:50:41.139Z,36.33
2022-11-01T14:51:51.969Z,32.97
2022-11-01T14:53:25.780Z,34.83
2022-11-01T14:54:52.316Z,33.88
2022-11-01T14:56:19.751Z,28.48
2022-11-01T14:57:29.271Z,28.10
2022-11-01T14:58:32.533Z,34.05
2022-11-01T14:59:35.550Z,28.63
2022-11-01T15:00:39.631Z,34.33
2022-11-01T15:01:45.960Z,31.63
2022-11-01T15:02:50.412Z,34.03
2022-11-01T15:03:58.825Z,36.08